Alum Bank, Pennsylvania
Current Conditions -  °F | °C
As of 8:26 AM on Friday 28 Nov 2014 (Local Time) from KJST Reporting Station
Light Snow Light Snow  
Wind Chill:   Ceiling: 2400
Heat Index: 21°   Visibility: 2mi
Dew Point: 16°   Wind: 16mph
Humidity: 81%   Direction: 300°WNW
Pressure: 30.18"   Gusts: 23mph
Location:  40.18°N, 78.61°W
Report Text: KJST 281326Z AUTO 30014G20KT 2SM -SN SCT015 BKN024 OVC040 M06/M09 A3018 RMK AO2 VIS 1 1/2V2 1/2 UPB01E02SNE01B02 P0000 T10611089
Loading
Personal Weather Stations






























Interactive Weather Map New forecast layout! Learn more

10-Day Weather Forecast

Advertisements
Track Severe Weather on mobile